Time;durP1;ratioP1;P1;durP2;ratioP2;P2;SDS_P1;SDS_P2;PMS_P1;PMS_P2;Temp;Humidity;BMP_temperature;BMP_pressure;BME280_temperature;BME280_humidity;BME280_pressure;Samples;Min_cycle;Max_cycle;Signal;HPM_P1;HPM_P2
2021/01/28 00:00:22;;;;;;;;;;;2.00;99.90;;;;;;5094099;28;19908;-75
2021/01/28 00:02:48;;;;;;;;;;;2.00;99.90;;;;;;5094137;28;19918;-75
2021/01/28 00:05:13;;;;;;;;;;;2.10;99.90;;;;;;5094052;28;20002;-75
2021/01/28 00:07:39;;;;;;;;;;;2.10;99.90;;;;;;5093428;28;19930;-75
2021/01/28 00:10:04;;;;;;;;;;;2.10;99.90;;;;;;5093656;28;19916;-75
2021/01/28 00:12:30;;;;;;;;;;;2.10;99.90;;;;;;5092635;28;19908;-75
2021/01/28 00:14:55;;;;;;;;;;;2.10;99.90;;;;;;5080905;28;19920;-75
2021/01/28 00:17:21;;;;;;;;;;;2.10;99.90;;;;;;5073977;28;19944;-75
2021/01/28 00:19:46;;;;;;;;;;;2.20;99.90;;;;;;5074159;28;19915;-75
2021/01/28 00:22:12;;;;;;;;;;;2.10;99.90;;;;;;5074004;28;19915;-75
2021/01/28 00:24:37;;;;;;;;;;;2.10;99.90;;;;;;5074278;28;20084;-76
2021/01/28 00:27:03;;;;;;;;;;;2.10;99.90;;;;;;5073520;28;19912;-75
2021/01/28 00:29:28;;;;;;;;;;;2.10;99.90;;;;;;5071533;28;20426;-75
2021/01/28 00:31:55;;;;;;;;;;;2.10;99.90;;;;;;5073382;28;19916;-75
2021/01/28 00:34:20;;;;;;;;;;;2.10;99.90;;;;;;5078706;28;19912;-75
2021/01/28 00:36:46;;;;;;;;;;;2.10;99.90;;;;;;5070805;28;19939;-76
2021/01/28 00:39:11;;;;;;;;;;;2.10;99.90;;;;;;5070462;28;19915;-76
2021/01/28 00:41:37;;;;;;;;;;;2.10;99.90;;;;;;5071956;28;20423;-75
2021/01/28 00:44:02;;;;;;;;;;;2.10;99.90;;;;;;5079595;28;20435;-75
2021/01/28 00:46:28;;;;;;;;;;;2.10;99.90;;;;;;5079436;28;20204;-75
2021/01/28 00:48:53;;;;;;;;;;;2.10;99.90;;;;;;5073690;28;19912;-75
2021/01/28 00:51:19;;;;;;;;;;;2.10;99.90;;;;;;5073615;28;19908;-75
2021/01/28 00:53:44;;;;;;;;;;;2.10;99.90;;;;;;5073722;28;20350;-75
2021/01/28 00:56:10;;;;;;;;;;;2.10;99.90;;;;;;5073423;28;20362;-75
2021/01/28 00:58:35;;;;;;;;;;;2.10;99.90;;;;;;5073386;28;19912;-75
2021/01/28 01:01:01;;;;;;;;;;;2.10;99.90;;;;;;5073565;28;20419;-75
2021/01/28 01:03:28;;;;;;;;;;;2.10;99.90;;;;;;5073464;28;19915;-76
2021/01/28 01:05:54;;;;;;;;;;;2.10;99.90;;;;;;5073096;28;19952;-75
2021/01/28 01:08:24;;;;;;;;;;;2.10;99.90;;;;;;5073350;28;19915;-76
2021/01/28 01:10:52;;;;;;;;;;;2.10;99.90;;;;;;5092823;28;19912;-75
2021/01/28 01:13:20;;;;;;;;;;;2.10;99.90;;;;;;5076217;28;20365;-75
2021/01/28 01:15:45;;;;;;;;;;;2.10;99.90;;;;;;5089602;28;20301;-76
2021/01/28 01:18:12;;;;;;;;;;;2.10;99.90;;;;;;5073310;28;19920;-75
2021/01/28 01:20:37;;;;;;;;;;;2.10;99.90;;;;;;5073017;28;19909;-76
2021/01/28 01:23:03;;;;;;;;;;;2.20;99.90;;;;;;5073262;28;20194;-75
2021/01/28 01:25:29;;;;;;;;;;;2.20;99.90;;;;;;5072742;28;19909;-76
2021/01/28 01:27:54;;;;;;;;;;;2.20;99.90;;;;;;5072771;28;20027;-75
2021/01/28 01:30:20;;;;;;;;;;;2.20;99.90;;;;;;5071509;28;19916;-76
2021/01/28 01:32:46;;;;;;;;;;;2.20;99.90;;;;;;5072841;28;19981;-76
2021/01/28 01:35:14;;;;;;;;;;;2.20;99.90;;;;;;5072871;28;20365;-75
2021/01/28 01:37:39;;;;;;;;;;;2.20;99.90;;;;;;5072435;28;19987;-76
2021/01/28 01:40:06;;;;;;;;;;;2.20;99.90;;;;;;5072841;28;19943;-75
2021/01/28 01:42:32;;;;;;;;;;;2.20;99.90;;;;;;5075262;28;20435;-75
2021/01/28 01:44:58;;;;;;;;;;;2.10;99.90;;;;;;5079235;28;19912;-76
2021/01/28 01:47:26;;;;;;;;;;;2.10;99.90;;;;;;5074005;28;19960;-74
2021/01/28 01:49:52;;;;;;;;;;;2.20;99.90;;;;;;5072704;28;20444;-75
2021/01/28 01:52:18;;;;;;;;;;;2.10;99.90;;;;;;5070671;28;20000;-75
2021/01/28 01:54:46;;;;;;;;;;;2.10;99.90;;;;;;5072521;28;20246;-75
2021/01/28 01:57:21;;;;;;;;;;;2.10;99.90;;;;;;5072080;28;19908;-75
2021/01/28 01:59:58;;;;;;;;;;;2.10;99.90;;;;;;5072330;28;19958;-75
2021/01/28 02:02:24;;;;;;;;;;;2.10;99.90;;;;;;5085671;28;19962;-75
2021/01/28 02:04:56;;;;;;;;;;;2.20;99.90;;;;;;5091868;28;19951;-75
2021/01/28 02:07:23;;;;;;;;;;;2.10;99.90;;;;;;5090023;28;19953;-75
2021/01/28 02:09:49;;;;;;;;;;;2.10;99.90;;;;;;5091551;28;19950;-75
2021/01/28 02:12:14;;;;;;;;;;;2.10;99.90;;;;;;5090751;28;19908;-75
2021/01/28 02:14:40;;;;;;;;;;;2.20;99.90;;;;;;5080854;28;20372;-75
2021/01/28 02:17:06;;;;;;;;;;;2.20;99.90;;;;;;5072841;28;19944;-75
2021/01/28 02:19:31;;;;;;;;;;;2.20;99.90;;;;;;5070457;28;19956;-75
2021/01/28 02:22:00;;;;;;;;;;;2.20;99.90;;;;;;5071928;28;19912;-75
2021/01/28 02:24:46;;;;;;;;;;;2.20;99.90;;;;;;5071823;28;19912;-75
2021/01/28 02:27:12;;;;;;;;;;;2.20;99.90;;;;;;5085517;28;19953;-75
2021/01/28 02:29:38;;;;;;;;;;;2.20;99.90;;;;;;5090903;28;19916;-75
2021/01/28 02:32:04;;;;;;;;;;;2.20;99.90;;;;;;5090981;28;20365;-75
2021/01/28 02:34:31;;;;;;;;;;;2.20;99.90;;;;;;5090973;28;19916;-75
2021/01/28 02:36:56;;;;;;;;;;;2.20;99.90;;;;;;5090691;28;20352;-76
2021/01/28 02:39:23;;;;;;;;;;;2.20;99.90;;;;;;5090900;28;19951;-76
2021/01/28 02:42:07;;;;;;;;;;;2.20;99.90;;;;;;5090891;28;19991;-76
2021/01/28 02:44:33;;;;;;;;;;;2.30;99.90;;;;;;5077453;28;19917;-76
2021/01/28 02:46:58;;;;;;;;;;;2.30;99.90;;;;;;5079115;28;19923;-76
2021/01/28 02:49:24;;;;;;;;;;;2.30;99.90;;;;;;5071592;28;19959;-76
2021/01/28 02:51:49;;;;;;;;;;;2.30;99.90;;;;;;5071758;28;19909;-75
2021/01/28 02:54:15;;;;;;;;;;;2.30;99.90;;;;;;5071241;28;19908;-75
2021/01/28 02:56:40;;;;;;;;;;;2.30;99.90;;;;;;5078268;28;20360;-76
2021/01/28 02:59:07;;;;;;;;;;;2.30;99.90;;;;;;5071338;28;19912;-76
2021/01/28 03:01:33;;;;;;;;;;;2.30;99.90;;;;;;5071495;28;19940;-75
2021/01/28 03:03:59;;;;;;;;;;;2.30;99.90;;;;;;5070483;28;19908;-76
2021/01/28 03:06:24;;;;;;;;;;;2.40;99.90;;;;;;5070964;28;19916;-76
2021/01/28 03:08:50;;;;;;;;;;;2.30;99.90;;;;;;5071088;28;19961;-76
2021/01/28 03:11:15;;;;;;;;;;;2.30;99.90;;;;;;5071274;28;19932;-76
2021/01/28 03:13:41;;;;;;;;;;;2.40;99.90;;;;;;5078956;28;19943;-76
2021/01/28 03:16:06;;;;;;;;;;;2.40;99.90;;;;;;5072438;28;19916;-76
2021/01/28 03:18:32;;;;;;;;;;;2.40;99.90;;;;;;5071054;28;20399;-76
2021/01/28 03:20:57;;;;;;;;;;;2.40;99.90;;;;;;5070199;28;19912;-76
2021/01/28 03:23:23;;;;;;;;;;;2.40;99.90;;;;;;5084139;28;19948;-76
2021/01/28 03:25:48;;;;;;;;;;;2.50;99.90;;;;;;5070678;28;19916;-76
2021/01/28 03:28:14;;;;;;;;;;;2.50;99.90;;;;;;5071151;28;19913;-76
2021/01/28 03:30:41;;;;;;;;;;;2.50;99.90;;;;;;5070735;28;19917;-76
2021/01/28 03:33:07;;;;;;;;;;;2.50;99.90;;;;;;5070317;28;19991;-76
2021/01/28 03:35:33;;;;;;;;;;;2.50;99.90;;;;;;5069423;28;19908;-76
2021/01/28 03:37:59;;;;;;;;;;;2.50;99.90;;;;;;5070715;28;20325;-76
2021/01/28 03:40:26;;;;;;;;;;;2.60;99.90;;;;;;5070809;28;19913;-76
2021/01/28 03:42:52;;;;;;;;;;;2.60;99.90;;;;;;5074705;28;20307;-76
2021/01/28 03:45:17;;;;;;;;;;;2.60;99.90;;;;;;5081884;28;19909;-76
2021/01/28 03:47:43;;;;;;;;;;;2.60;99.90;;;;;;5070697;28;19947;-76
2021/01/28 03:50:10;;;;;;;;;;;2.60;99.90;;;;;;5073461;28;20007;-75
2021/01/28 03:52:35;;;;;;;;;;;2.60;99.90;;;;;;5069834;28;20361;-75
2021/01/28 03:55:01;;;;;;;;;;;2.60;99.90;;;;;;5070840;28;19915;-76
2021/01/28 03:57:26;;;;;;;;;;;2.70;99.90;;;;;;5070544;28;19916;-76
2021/01/28 03:59:52;;;;;;;;;;;2.70;99.90;;;;;;5069296;28;20007;-76
2021/01/28 04:02:17;;;;;;;;;;;2.70;99.90;;;;;;5070799;28;19913;-76
2021/01/28 04:04:43;;;;;;;;;;;2.70;99.90;;;;;;5071052;28;19909;-76
2021/01/28 04:07:08;;;;;;;;;;;2.70;99.90;;;;;;5070251;28;19912;-76
2021/01/28 04:09:34;;;;;;;;;;;2.70;99.90;;;;;;5070361;28;19912;-76
2021/01/28 04:11:59;;;;;;;;;;;2.70;99.90;;;;;;5070743;28;20008;-76
2021/01/28 04:14:25;;;;;;;;;;;2.70;99.90;;;;;;5080714;28;19915;-76
2021/01/28 04:16:50;;;;;;;;;;;2.70;99.90;;;;;;5080437;28;19913;-76
2021/01/28 04:19:16;;;;;;;;;;;2.70;99.90;;;;;;5074136;28;19912;-76
2021/01/28 04:21:41;;;;;;;;;;;2.70;99.90;;;;;;5074512;28;19912;-76
2021/01/28 04:24:07;;;;;;;;;;;2.60;99.90;;;;;;5074172;28;19909;-76
2021/01/28 04:26:34;;;;;;;;;;;2.60;99.90;;;;;;5072472;28;19943;-76
2021/01/28 04:29:00;;;;;;;;;;;2.60;99.90;;;;;;5073728;28;20415;-76
2021/01/28 04:31:26;;;;;;;;;;;2.60;99.90;;;;;;5073921;28;19920;-76
2021/01/28 04:33:51;;;;;;;;;;;2.60;99.90;;;;;;5074038;28;19947;-76
2021/01/28 04:36:17;;;;;;;;;;;2.60;99.90;;;;;;5073451;28;19954;-76
2021/01/28 04:38:42;;;;;;;;;;;2.60;99.90;;;;;;5073722;28;20373;-76
2021/01/28 04:41:13;;;;;;;;;;;2.60;99.90;;;;;;5073911;28;19909;-76
2021/01/28 04:43:39;;;;;;;;;;;2.60;99.90;;;;;;5079080;28;20315;-76
2021/01/28 04:46:06;;;;;;;;;;;2.60;99.90;;;;;;5079626;28;19908;-76
2021/01/28 04:48:33;;;;;;;;;;;2.60;99.90;;;;;;5073764;28;19909;-75
2021/01/28 04:51:00;;;;;;;;;;;2.60;99.90;;;;;;5072064;28;19917;-75
2021/01/28 04:53:33;;;;;;;;;;;2.60;99.90;;;;;;5073535;28;20385;-75
2021/01/28 04:56:01;;;;;;;;;;;2.60;99.90;;;;;;5073149;28;19913;-75
2021/01/28 04:58:27;;;;;;;;;;;2.60;99.90;;;;;;5073354;28;20124;-75
2021/01/28 05:00:52;;;;;;;;;;;2.50;99.90;;;;;;5072188;28;20034;-75
2021/01/28 05:03:23;;;;;;;;;;;2.50;99.90;;;;;;5073581;28;20246;-75
2021/01/28 05:05:49;;;;;;;;;;;2.50;99.90;;;;;;5072951;28;19912;-75
2021/01/28 05:08:15;;;;;;;;;;;2.50;99.90;;;;;;5073418;28;19915;-75
2021/01/28 05:10:51;;;;;;;;;;;2.40;99.90;;;;;;5072175;28;20297;-75
2021/01/28 05:13:27;;;;;;;;;;;2.50;99.90;;;;;;5081417;28;20053;-75
2021/01/28 05:15:53;;;;;;;;;;;2.40;99.90;;;;;;5078751;28;19909;-75
2021/01/28 05:18:33;;;;;;;;;;;2.40;99.90;;;;;;5071653;28;19923;-75
2021/01/28 05:21:03;;;;;;;;;;;2.40;99.90;;;;;;5071770;28;20126;-75
2021/01/28 05:23:31;;;;;;;;;;;2.50;99.90;;;;;;5072716;28;19958;-75
2021/01/28 05:25:57;;;;;;;;;;;2.40;99.90;;;;;;5071687;28;19912;-75
2021/01/28 05:28:24;;;;;;;;;;;2.50;99.90;;;;;;5073186;28;19954;-75
2021/01/28 05:30:50;;;;;;;;;;;2.50;99.90;;;;;;5072890;28;19923;-75
2021/01/28 05:33:21;;;;;;;;;;;2.50;99.90;;;;;;5090597;28;19912;-75
2021/01/28 05:35:48;;;;;;;;;;;2.60;99.90;;;;;;5092066;28;19920;-75
2021/01/28 05:38:16;;;;;;;;;;;2.60;99.90;;;;;;5092426;28;20250;-75
2021/01/28 05:40:50;;;;;;;;;;;2.60;99.90;;;;;;5092273;28;19908;-75
2021/01/28 05:43:29;;;;;;;;;;;2.60;99.90;;;;;;5083365;28;19920;-75
2021/01/28 05:46:09;;;;;;;;;;;2.60;99.90;;;;;;5081835;28;20410;-75
2021/01/28 05:48:34;;;;;;;;;;;2.60;99.90;;;;;;5072906;28;19908;-75
2021/01/28 05:51:04;;;;;;;;;;;2.60;99.90;;;;;;5072722;28;20073;-74
2021/01/28 05:53:30;;;;;;;;;;;2.60;99.90;;;;;;5072567;28;19909;-75
2021/01/28 05:55:56;;;;;;;;;;;2.60;99.90;;;;;;5072196;28;19913;-75
2021/01/28 05:58:33;;;;;;;;;;;2.70;99.90;;;;;;5071254;28;19909;-75
2021/01/28 06:01:22;;;;;;;;;;;2.60;99.90;;;;;;5072934;28;19912;-75
2021/01/28 06:04:06;;;;;;;;;;;2.70;99.90;;;;;;5077916;28;19921;-75
2021/01/28 06:06:50;;;;;;;;;;;2.70;99.90;;;;;;5090195;28;20406;-75
2021/01/28 06:09:27;;;;;;;;;;;2.70;99.90;;;;;;5091607;28;19916;-75
2021/01/28 06:12:01;;;;;;;;;;;2.70;99.90;;;;;;5072101;28;19956;-75
2021/01/28 06:14:32;;;;;;;;;;;2.70;99.90;;;;;;5079857;28;19912;-75
2021/01/28 06:17:16;;;;;;;;;;;2.70;99.90;;;;;;5078203;28;20361;-76
2021/01/28 06:19:47;;;;;;;;;;;2.80;99.90;;;;;;5072054;28;19909;-76
2021/01/28 06:22:24;;;;;;;;;;;2.80;99.90;;;;;;5070968;28;19908;-76
2021/01/28 06:25:02;;;;;;;;;;;2.80;99.90;;;;;;5071896;28;19909;-76
2021/01/28 06:27:43;;;;;;;;;;;2.80;99.90;;;;;;5084795;28;19931;-76
2021/01/28 06:30:35;;;;;;;;;;;2.90;99.90;;;;;;5074896;28;19912;-75
2021/01/28 06:33:19;;;;;;;;;;;2.90;99.90;;;;;;5068818;28;19916;-76
2021/01/28 06:35:59;;;;;;;;;;;2.90;99.90;;;;;;5085492;28;19915;-76
2021/01/28 06:38:39;;;;;;;;;;;2.90;99.90;;;;;;5091339;28;19974;-76
2021/01/28 06:41:09;;;;;;;;;;;2.90;99.90;;;;;;5091223;28;19908;-76
2021/01/28 06:43:40;;;;;;;;;;;2.90;99.90;;;;;;5087516;28;19914;-76
2021/01/28 06:46:11;;;;;;;;;;;2.90;99.90;;;;;;5075023;28;19921;-76
2021/01/28 06:48:41;;;;;;;;;;;2.90;99.90;;;;;;5072165;28;19912;-76
2021/01/28 06:51:16;;;;;;;;;;;2.90;99.90;;;;;;5071787;28;19924;-76
2021/01/28 06:53:50;;;;;;;;;;;2.90;99.90;;;;;;5084972;28;19915;-75
2021/01/28 06:56:15;;;;;;;;;;;2.90;99.90;;;;;;5090720;28;19908;-76
2021/01/28 06:58:44;;;;;;;;;;;2.90;99.90;;;;;;5089802;28;19923;-76
2021/01/28 07:01:35;;;;;;;;;;;2.90;99.90;;;;;;5091032;28;19994;-76
2021/01/28 07:04:04;;;;;;;;;;;2.90;99.90;;;;;;5087916;28;20007;-76
2021/01/28 07:06:46;;;;;;;;;;;2.90;99.90;;;;;;5090479;28;19912;-76
2021/01/28 07:09:23;;;;;;;;;;;2.90;99.90;;;;;;5091128;28;19908;-75
2021/01/28 07:11:52;;;;;;;;;;;3.00;99.90;;;;;;5090973;28;19920;-76
2021/01/28 07:14:18;;;;;;;;;;;3.00;99.90;;;;;;5075415;28;20419;-76
2021/01/28 07:16:54;;;;;;;;;;;3.00;99.90;;;;;;5079541;28;19955;-76
2021/01/28 07:19:21;;;;;;;;;;;3.00;99.90;;;;;;5071535;28;19995;-76
2021/01/28 07:21:49;;;;;;;;;;;3.10;99.90;;;;;;5071563;28;20285;-77
2021/01/28 07:24:26;;;;;;;;;;;3.00;99.90;;;;;;5070210;28;19954;-77
2021/01/28 07:27:24;;;;;;;;;;;3.10;99.90;;;;;;5071195;28;19962;-76
2021/01/28 07:29:51;;;;;;;;;;;3.10;99.90;;;;;;5051292;28;19912;-77
2021/01/28 07:32:26;;;;;;;;;;;3.10;99.90;;;;;;5090895;28;19938;-77
2021/01/28 07:35:10;;;;;;;;;;;3.10;99.90;;;;;;5089941;28;19912;-76
2021/01/28 07:37:35;;;;;;;;;;;3.10;99.90;;;;;;5077355;28;19923;-77
2021/01/28 07:40:01;;;;;;;;;;;3.10;99.90;;;;;;5084260;28;20277;-77
2021/01/28 07:42:28;;;;;;;;;;;3.10;99.90;;;;;;5072797;28;20201;-77
2021/01/28 07:44:56;;;;;;;;;;;3.10;99.90;;;;;;5078239;28;19912;-77
2021/01/28 07:47:31;;;;;;;;;;;3.10;99.90;;;;;;5073577;28;20307;-77
2021/01/28 07:50:15;;;;;;;;;;;3.20;99.90;;;;;;5073169;28;20024;-76
2021/01/28 07:52:41;;;;;;;;;;;3.10;99.90;;;;;;5089034;28;20015;-77
2021/01/28 07:55:25;;;;;;;;;;;3.10;99.90;;;;;;5093305;28;19919;-77
2021/01/28 07:57:51;;;;;;;;;;;3.10;99.90;;;;;;5092914;28;19919;-77
2021/01/28 08:00:20;;;;;;;;;;;3.20;99.90;;;;;;5094331;28;20007;-76
2021/01/28 08:02:59;;;;;;;;;;;3.20;99.90;;;;;;5093121;28;20433;-77
2021/01/28 08:05:25;;;;;;;;;;;3.20;99.90;;;;;;5094346;28;19953;-76
2021/01/28 08:08:08;;;;;;;;;;;3.20;99.90;;;;;;5082966;28;19943;-77
2021/01/28 08:10:35;;;;;;;;;;;3.20;99.90;;;;;;5084777;28;20010;-77
2021/01/28 08:13:09;;;;;;;;;;;3.20;99.90;;;;;;5080758;28;19915;-77
2021/01/28 08:15:37;;;;;;;;;;;3.20;99.90;;;;;;5080057;28;19908;-77
2021/01/28 08:18:15;;;;;;;;;;;3.20;99.90;;;;;;5073756;28;19908;-76
2021/01/28 08:20:41;;;;;;;;;;;3.30;99.90;;;;;;5074160;28;19909;-77
2021/01/28 08:23:13;;;;;;;;;;;3.30;99.90;;;;;;5074190;28;19915;-77
2021/01/28 08:25:49;;;;;;;;;;;3.30;99.90;;;;;;5073579;28;19944;-76
2021/01/28 08:28:15;;;;;;;;;;;3.30;99.90;;;;;;5074223;28;19916;-77
2021/01/28 08:30:42;;;;;;;;;;;3.30;99.90;;;;;;5074227;28;19916;-77
2021/01/28 08:33:10;;;;;;;;;;;3.40;99.90;;;;;;5074524;28;20322;-77
2021/01/28 08:35:37;;;;;;;;;;;3.40;99.90;;;;;;5074103;28;19909;-77
2021/01/28 08:38:04;;;;;;;;;;;3.40;99.90;;;;;;5072925;28;19915;-77
2021/01/28 08:40:29;;;;;;;;;;;3.40;99.90;;;;;;5073956;28;19908;-76
2021/01/28 08:43:04;;;;;;;;;;;3.40;99.90;;;;;;5074890;28;20281;-77
2021/01/28 08:45:30;;;;;;;;;;;3.50;99.90;;;;;;5081973;28;19909;-76
2021/01/28 08:47:56;;;;;;;;;;;3.50;99.90;;;;;;5075792;28;19912;-77
2021/01/28 08:50:24;;;;;;;;;;;3.60;99.90;;;;;;5071750;28;20440;-76
2021/01/28 08:52:52;;;;;;;;;;;3.50;99.90;;;;;;5071812;28;19915;-76
2021/01/28 08:55:18;;;;;;;;;;;3.60;99.90;;;;;;5073446;28;19987;-76
2021/01/28 08:57:44;;;;;;;;;;;3.60;99.90;;;;;;5072246;28;20511;-77
2021/01/28 09:00:10;;;;;;;;;;;3.60;99.90;;;;;;5071648;28;19915;-77
2021/01/28 09:02:38;;;;;;;;;;;3.70;99.90;;;;;;5072919;28;19915;-77
2021/01/28 09:05:23;;;;;;;;;;;3.70;99.90;;;;;;5072060;28;19973;-76
2021/01/28 09:08:15;;;;;;;;;;;3.70;99.90;;;;;;5071950;28;20291;-77
2021/01/28 09:10:41;;;;;;;;;;;3.70;99.90;;;;;;5085556;28;19915;-76
2021/01/28 09:13:11;;;;;;;;;;;3.70;99.90;;;;;;5089673;28;19909;-76
2021/01/28 09:15:37;;;;;;;;;;;3.70;99.90;;;;;;5081485;28;19920;-76
2021/01/28 09:18:04;;;;;;;;;;;3.80;99.90;;;;;;5073076;28;19962;-76
2021/01/28 09:20:32;;;;;;;;;;;3.80;99.90;;;;;;5073412;28;19915;-76
2021/01/28 09:23:08;;;;;;;;;;;3.80;99.90;;;;;;5072108;28;20266;-76
2021/01/28 09:25:34;;;;;;;;;;;3.80;99.90;;;;;;5073016;28;19948;-77
2021/01/28 09:28:00;;;;;;;;;;;3.80;99.90;;;;;;5072789;28;20288;-76
2021/01/28 09:30:30;;;;;;;;;;;3.80;99.90;;;;;;5072990;28;19923;-76
2021/01/28 09:32:56;;;;;;;;;;;3.90;99.90;;;;;;5071573;28;19935;-76
2021/01/28 09:35:23;;;;;;;;;;;4.00;99.90;;;;;;5080469;28;20365;-76
2021/01/28 09:38:07;;;;;;;;;;;4.00;99.90;;;;;;5075501;28;19909;-76
2021/01/28 09:40:35;;;;;;;;;;;4.10;99.90;;;;;;5071379;28;19995;-76
2021/01/28 09:43:19;;;;;;;;;;;4.10;99.90;;;;;;5073474;28;19912;-76
2021/01/28 09:46:03;;;;;;;;;;;4.10;99.90;;;;;;5079622;28;19915;-75
2021/01/28 09:48:28;;;;;;;;;;;4.10;99.90;;;;;;5071698;28;19958;-76
2021/01/28 09:50:54;;;;;;;;;;;4.10;99.90;;;;;;5070883;28;19948;-77
2021/01/28 09:53:19;;;;;;;;;;;4.10;99.90;;;;;;5071126;28;19932;-76
2021/01/28 09:55:45;;;;;;;;;;;4.10;99.90;;;;;;5070872;28;19935;-77
2021/01/28 09:58:10;;;;;;;;;;;4.10;99.90;;;;;;5072428;28;20501;-76
2021/01/28 10:00:36;;;;;;;;;;;4.00;99.90;;;;;;5086711;28;20403;-76
2021/01/28 10:03:03;;;;;;;;;;;4.10;99.90;;;;;;5091876;28;19956;-76
2021/01/28 10:05:29;;;;;;;;;;;4.00;99.90;;;;;;5091413;28;19998;-77
2021/01/28 10:07:56;;;;;;;;;;;4.10;99.90;;;;;;5090113;28;19912;-77
2021/01/28 10:10:22;;;;;;;;;;;4.10;99.90;;;;;;5091506;28;20369;-77
2021/01/28 10:12:48;;;;;;;;;;;4.10;99.90;;;;;;5088326;28;19992;-76
2021/01/28 10:15:14;;;;;;;;;;;4.10;99.90;;;;;;5073559;28;20388;-77
2021/01/28 10:17:42;;;;;;;;;;;4.20;99.90;;;;;;5075582;28;19964;-76
2021/01/28 10:20:08;;;;;;;;;;;4.20;99.90;;;;;;5071756;28;20378;-75
2021/01/28 10:22:35;;;;;;;;;;;4.20;99.90;;;;;;5079747;28;19909;-77
2021/01/28 10:25:00;;;;;;;;;;;4.20;99.90;;;;;;5091462;28;19997;-76
2021/01/28 10:27:26;;;;;;;;;;;4.20;99.90;;;;;;5089796;28;19981;-77
2021/01/28 10:29:51;;;;;;;;;;;4.30;99.90;;;;;;5090109;28;19912;-77
2021/01/28 10:32:17;;;;;;;;;;;4.30;99.90;;;;;;5089922;28;20004;-76
2021/01/28 10:34:42;;;;;;;;;;;4.30;99.90;;;;;;5089699;28;19914;-76
2021/01/28 10:37:08;;;;;;;;;;;4.30;99.90;;;;;;5089761;28;19962;-77
2021/01/28 10:39:34;;;;;;;;;;;4.30;99.90;;;;;;5091392;28;20102;-77
2021/01/28 10:42:00;;;;;;;;;;;4.40;99.90;;;;;;5091205;28;19909;-77
2021/01/28 10:44:25;;;;;;;;;;;4.40;99.90;;;;;;5082189;28;19908;-77
2021/01/28 10:46:51;;;;;;;;;;;4.50;99.90;;;;;;5073070;28;19915;-76
2021/01/28 10:49:17;;;;;;;;;;;4.50;99.90;;;;;;5069830;28;19982;-76
2021/01/28 10:51:43;;;;;;;;;;;4.50;99.90;;;;;;5070248;28;19915;-74
2021/01/28 10:54:08;;;;;;;;;;;4.50;99.90;;;;;;5071708;28;20369;-77
2021/01/28 10:56:34;;;;;;;;;;;4.60;99.90;;;;;;5071155;28;19915;-77
2021/01/28 10:58:59;;;;;;;;;;;4.60;99.90;;;;;;5071573;28;19953;-76
2021/01/28 11:01:25;;;;;;;;;;;4.70;99.90;;;;;;5071441;28;20388;-75
2021/01/28 11:03:50;;;;;;;;;;;4.70;99.90;;;;;;5069883;28;19909;-76
2021/01/28 11:06:16;;;;;;;;;;;4.80;99.90;;;;;;5071006;28;20380;-77
2021/01/28 11:08:41;;;;;;;;;;;4.90;99.90;;;;;;5070108;28;20021;-77
2021/01/28 11:11:07;;;;;;;;;;;5.00;99.90;;;;;;5070060;28;20045;-76
2021/01/28 11:13:32;;;;;;;;;;;5.10;99.90;;;;;;5075083;28;20271;-77
2021/01/28 11:15:58;;;;;;;;;;;5.10;99.90;;;;;;5083001;28;19916;-77
2021/01/28 11:18:23;;;;;;;;;;;5.20;99.90;;;;;;5071017;28;19959;-76
2021/01/28 11:20:49;;;;;;;;;;;5.20;99.90;;;;;;5071209;28;20411;-77
2021/01/28 11:23:14;;;;;;;;;;;5.30;99.90;;;;;;5069857;28;19944;-77
2021/01/28 11:25:40;;;;;;;;;;;5.20;99.90;;;;;;5073124;28;20317;-76
2021/01/28 11:28:06;;;;;;;;;;;5.20;99.90;;;;;;5080769;28;19950;-75
2021/01/28 11:30:32;;;;;;;;;;;5.20;99.90;;;;;;5074212;28;20377;-77
2021/01/28 11:32:58;;;;;;;;;;;5.10;99.90;;;;;;5075356;28;19918;-76
2021/01/28 11:35:25;;;;;;;;;;;5.10;99.90;;;;;;5073804;28;19913;-75
2021/01/28 11:37:51;;;;;;;;;;;5.10;99.90;;;;;;5073457;28;20262;-77
2021/01/28 11:40:18;;;;;;;;;;;5.10;99.90;;;;;;5074929;28;20007;-76
2021/01/28 11:42:44;;;;;;;;;;;5.20;99.90;;;;;;5077775;28;20426;-77
2021/01/28 11:45:10;;;;;;;;;;;5.30;99.90;;;;;;5081473;28;19916;-75
2021/01/28 11:47:37;;;;;;;;;;;5.60;99.90;;;;;;5080343;28;19909;-77
2021/01/28 11:50:04;;;;;;;;;;;5.80;99.90;;;;;;5082286;28;20326;-77
2021/01/28 11:52:29;;;;;;;;;;;6.00;99.90;;;;;;5083602;28;19915;-77
2021/01/28 11:54:55;;;;;;;;;;;6.10;99.90;;;;;;5074813;28;19934;-77
2021/01/28 11:57:20;;;;;;;;;;;6.30;99.90;;;;;;5074483;28;19916;-76
2021/01/28 11:59:46;;;;;;;;;;;6.40;99.90;;;;;;5073398;28;20367;-77
2021/01/28 12:02:11;;;;;;;;;;;6.40;99.90;;;;;;5074471;28;19908;-77
2021/01/28 12:04:36;;;;;;;;;;;6.40;99.90;;;;;;5071856;28;19916;-77
2021/01/28 12:07:02;;;;;;;;;;;6.40;99.90;;;;;;5092569;28;19952;-77
2021/01/28 12:09:27;;;;;;;;;;;6.40;99.90;;;;;;5092537;28;19942;-77
2021/01/28 12:11:53;;;;;;;;;;;6.30;99.90;;;;;;5093840;28;19908;-76
2021/01/28 12:14:18;;;;;;;;;;;6.40;99.90;;;;;;5089963;28;19908;-75
2021/01/28 12:16:44;;;;;;;;;;;6.40;99.90;;;;;;5075745;28;19954;-76
2021/01/28 12:19:10;;;;;;;;;;;6.50;99.90;;;;;;5073970;28;19909;-77
2021/01/28 12:21:36;;;;;;;;;;;6.60;99.90;;;;;;5074145;28;19908;-77
2021/01/28 12:24:01;;;;;;;;;;;6.60;99.90;;;;;;5074292;28;20003;-76
2021/01/28 12:26:27;;;;;;;;;;;6.70;99.90;;;;;;5073979;28;19999;-76
2021/01/28 12:28:52;;;;;;;;;;;6.90;99.90;;;;;;5074279;28;19908;-77
2021/01/28 12:31:18;;;;;;;;;;;7.00;99.90;;;;;;5073976;28;19941;-77
2021/01/28 12:33:43;;;;;;;;;;;7.20;99.90;;;;;;5073986;28;19916;-76
2021/01/28 12:36:09;;;;;;;;;;;7.30;99.90;;;;;;5073516;28;19915;-76
2021/01/28 12:38:35;;;;;;;;;;;7.30;99.90;;;;;;5074108;28;19915;-77
2021/01/28 12:41:01;;;;;;;;;;;7.40;99.90;;;;;;5073934;28;19915;-77
2021/01/28 12:43:27;;;;;;;;;;;7.40;99.90;;;;;;5074016;28;19913;-76
2021/01/28 12:45:52;;;;;;;;;;;7.40;99.90;;;;;;5082507;28;20042;-76
2021/01/28 12:48:18;;;;;;;;;;;7.50;99.90;;;;;;5073712;28;19912;-76
2021/01/28 12:50:43;;;;;;;;;;;7.50;99.90;;;;;;5072443;28;19912;-77
2021/01/28 12:53:08;;;;;;;;;;;7.50;99.90;;;;;;5072662;28;20121;-76
2021/01/28 12:55:34;;;;;;;;;;;7.50;99.90;;;;;;5073610;28;20436;-76
2021/01/28 12:57:59;;;;;;;;;;;7.50;99.90;;;;;;5072484;28;19908;-76
2021/01/28 13:00:26;;;;;;;;;;;7.40;99.90;;;;;;5072297;28;20361;-77
2021/01/28 13:02:52;;;;;;;;;;;7.30;99.90;;;;;;5089039;28;20286;-76
2021/01/28 13:05:18;;;;;;;;;;;7.20;99.90;;;;;;5093129;28;19909;-76
2021/01/28 13:07:43;;;;;;;;;;;7.20;99.90;;;;;;5091328;28;19908;-77
2021/01/28 13:10:10;;;;;;;;;;;7.20;99.90;;;;;;5091427;28;19916;-76
2021/01/28 13:12:36;;;;;;;;;;;7.20;99.90;;;;;;5091774;28;20279;-77
2021/01/28 13:15:03;;;;;;;;;;;7.20;99.90;;;;;;5077407;28;19991;-76
2021/01/28 13:17:29;;;;;;;;;;;7.20;99.90;;;;;;5079253;28;19946;-76
2021/01/28 13:19:55;;;;;;;;;;;7.20;99.90;;;;;;5072000;28;20365;-76
2021/01/28 13:22:20;;;;;;;;;;;7.20;99.90;;;;;;5072048;28;19908;-76
2021/01/28 13:24:46;;;;;;;;;;;7.20;99.90;;;;;;5078171;28;20426;-76
2021/01/28 13:27:11;;;;;;;;;;;7.20;99.90;;;;;;5091253;28;19909;-77
2021/01/28 13:29:37;;;;;;;;;;;7.30;99.90;;;;;;5090749;28;19992;-76
2021/01/28 13:32:03;;;;;;;;;;;7.40;99.90;;;;;;5091103;28;20506;-76
2021/01/28 13:34:28;;;;;;;;;;;7.40;99.90;;;;;;5091163;28;20276;-76
2021/01/28 13:36:54;;;;;;;;;;;7.50;99.90;;;;;;5092036;28;19908;-76
2021/01/28 13:39:20;;;;;;;;;;;7.50;99.90;;;;;;5092377;28;20353;-76
2021/01/28 13:41:45;;;;;;;;;;;7.50;99.90;;;;;;5092281;28;20359;-77
2021/01/28 13:44:11;;;;;;;;;;;7.60;99.90;;;;;;5086671;28;19999;-76
2021/01/28 13:46:36;;;;;;;;;;;7.60;99.90;;;;;;5074893;28;19912;-76
2021/01/28 13:49:02;;;;;;;;;;;7.60;99.90;;;;;;5072650;28;20418;-76
2021/01/28 13:51:28;;;;;;;;;;;7.60;99.90;;;;;;5071444;28;19913;-76
2021/01/28 13:53:53;;;;;;;;;;;7.70;99.90;;;;;;5072668;28;20289;-76
2021/01/28 13:56:19;;;;;;;;;;;7.70;99.90;;;;;;5072397;28;19909;-76
2021/01/28 13:58:44;;;;;;;;;;;7.80;99.90;;;;;;5072341;28;19935;-76
2021/01/28 14:01:10;;;;;;;;;;;7.80;99.90;;;;;;5072461;28;20412;-76
2021/01/28 14:03:35;;;;;;;;;;;7.80;99.90;;;;;;5072500;28;19944;-76
2021/01/28 14:06:01;;;;;;;;;;;7.80;99.90;;;;;;5072262;28;20316;-76
2021/01/28 14:08:26;;;;;;;;;;;7.90;99.90;;;;;;5072464;28;20347;-77
2021/01/28 14:10:52;;;;;;;;;;;8.00;99.90;;;;;;5072269;28;19919;-76
2021/01/28 14:13:17;;;;;;;;;;;8.00;99.90;;;;;;5074602;28;20326;-76
2021/01/28 14:15:43;;;;;;;;;;;8.00;99.90;;;;;;5087290;28;19934;-76
2021/01/28 14:18:15;;;;;;;;;;;8.10;99.90;;;;;;5070927;28;19940;-76
2021/01/28 14:20:41;;;;;;;;;;;8.10;99.90;;;;;;5085422;28;19908;-76
2021/01/28 14:23:06;;;;;;;;;;;8.20;99.90;;;;;;5090114;28;19920;-76
2021/01/28 14:25:32;;;;;;;;;;;8.20;99.90;;;;;;5091796;28;19908;-76
2021/01/28 14:27:57;;;;;;;;;;;8.20;99.90;;;;;;5091570;28;19938;-76
2021/01/28 14:30:23;;;;;;;;;;;8.20;99.90;;;;;;5091423;28;19951;-76
2021/01/28 14:32:48;;;;;;;;;;;8.20;99.90;;;;;;5091850;28;20373;-76
2021/01/28 14:35:17;;;;;;;;;;;8.20;99.90;;;;;;5091740;28;19915;-76